createdAt,value
2019-01-30T00:00:41.259Z,0
2019-01-30T00:01:51.201Z,0
2019-01-30T00:03:01.123Z,0
2019-01-30T00:04:11.083Z,0
2019-01-30T00:05:20.993Z,0
2019-01-30T00:06:30.680Z,0
2019-01-30T00:07:40.598Z,0
2019-01-30T00:08:50.283Z,0
2019-01-30T00:09:59.957Z,0
2019-01-30T00:11:09.953Z,0
2019-01-30T00:12:19.890Z,0
2019-01-30T00:13:29.068Z,0
2019-01-30T00:14:39.011Z,0
2019-01-30T00:15:58.517Z,0
2019-01-30T00:17:08.460Z,0
2019-01-30T00:18:18.406Z,0
2019-01-30T00:19:28.373Z,0
2019-01-30T00:20:38.065Z,0
2019-01-30T00:21:47.999Z,0
2019-01-30T00:22:57.688Z,0
2019-01-30T00:24:07.371Z,0
2019-01-30T00:25:17.309Z,0
2019-01-30T00:26:27.240Z,0
2019-01-30T00:27:37.177Z,0
2019-01-30T00:28:46.885Z,0
2019-01-30T00:30:06.163Z,0
2019-01-30T00:31:16.096Z,0
2019-01-30T00:32:25.783Z,0
2019-01-30T00:33:35.470Z,0
2019-01-30T00:34:45.439Z,0
2019-01-30T00:35:55.117Z,0
2019-01-30T00:37:05.073Z,0
2019-01-30T00:38:14.753Z,0
2019-01-30T00:39:23.956Z,0
2019-01-30T00:40:33.899Z,0
2019-01-30T00:41:43.338Z,0
2019-01-30T00:42:53.263Z,0
2019-01-30T00:44:03.199Z,0
2019-01-30T00:45:13.158Z,0
2019-01-30T00:46:22.598Z,0
2019-01-30T00:47:34.770Z,0
2019-01-30T00:48:44.952Z,0
2019-01-30T00:49:54.396Z,0
2019-01-30T00:51:04.324Z,0
2019-01-30T00:52:14.258Z,0
2019-01-30T00:53:24.208Z,0
2019-01-30T00:54:39.281Z,0
2019-01-30T00:55:48.969Z,0
2019-01-30T00:56:58.413Z,0
2019-01-30T00:58:07.854Z,0
2019-01-30T00:59:17.547Z,0
2019-01-30T01:00:27.486Z,0
2019-01-30T01:01:36.918Z,0
2019-01-30T01:02:46.685Z,0
2019-01-30T01:03:56.618Z,0
2019-01-30T01:05:06.302Z,0
2019-01-30T01:06:16.224Z,0
2019-01-30T01:07:26.179Z,0
2019-01-30T01:08:36.184Z,0
2019-01-30T01:09:46.120Z,0
2019-01-30T01:10:55.823Z,0
2019-01-30T01:12:05.502Z,0
2019-01-30T01:13:17.064Z,0
2019-01-30T01:14:26.282Z,0
2019-01-30T01:15:35.710Z,0
2019-01-30T01:16:45.385Z,0
2019-01-30T01:17:55.436Z,0
2019-01-30T01:19:05.371Z,0
2019-01-30T01:20:15.304Z,0
2019-01-30T01:21:25.033Z,0
2019-01-30T01:22:34.733Z,0
2019-01-30T01:23:44.668Z,0
2019-01-30T01:24:54.113Z,0
2019-01-30T01:26:04.040Z,0
2019-01-30T01:27:13.978Z,0
2019-01-30T01:28:23.666Z,0
2019-01-30T01:29:33.347Z,0
2019-01-30T01:30:43.274Z,0
2019-01-30T01:31:53.208Z,0
2019-01-30T01:33:02.900Z,0
2019-01-30T01:34:12.609Z,0
2019-01-30T01:35:22.290Z,0
2019-01-30T01:36:32.223Z,0
2019-01-30T01:37:42.154Z,0
2019-01-30T01:38:52.108Z,0
2019-01-30T01:40:02.030Z,0
2019-01-30T01:41:11.452Z,0
2019-01-30T01:42:21.483Z,0
2019-01-30T01:43:31.625Z,0
2019-01-30T01:44:41.608Z,0
2019-01-30T01:45:51.558Z,0
2019-01-30T01:47:01.508Z,0
2019-01-30T01:48:11.202Z,0
2019-01-30T01:49:21.148Z,0
2019-01-30T01:50:31.090Z,0
2019-01-30T01:51:40.277Z,0
2019-01-30T01:52:50.198Z,0
2019-01-30T01:53:59.862Z,0
2019-01-30T01:55:09.615Z,0
2019-01-30T01:56:19.049Z,0
2019-01-30T01:57:28.998Z,0
2019-01-30T01:58:38.922Z,0
2019-01-30T01:59:48.870Z,0
2019-01-30T02:00:58.541Z,0
2019-01-30T02:02:08.483Z,0
2019-01-30T02:03:18.393Z,0
2019-01-30T02:04:28.074Z,0
2019-01-30T02:05:38.000Z,0
2019-01-30T02:06:47.935Z,0
2019-01-30T02:07:57.863Z,0
2019-01-30T02:09:07.559Z,0
2019-01-30T02:10:17.230Z,0
2019-01-30T02:11:27.173Z,0
2019-01-30T02:12:37.123Z,0
2019-01-30T02:13:47.041Z,0
2019-01-30T02:14:57.438Z,0
2019-01-30T02:16:07.129Z,0
2019-01-30T02:17:16.809Z,0
2019-01-30T02:18:26.815Z,0
2019-01-30T02:19:36.760Z,0
2019-01-30T02:20:46.699Z,0
2019-01-30T02:21:56.644Z,0
2019-01-30T02:23:06.382Z,0
2019-01-30T02:24:16.325Z,0
2019-01-30T02:25:26.275Z,0
2019-01-30T02:26:35.972Z,0
2019-01-30T02:27:45.895Z,0
2019-01-30T02:28:55.826Z,0
2019-01-30T02:30:05.511Z,0
2019-01-30T02:31:15.242Z,0
2019-01-30T02:32:24.934Z,0
2019-01-30T02:33:34.129Z,0
2019-01-30T02:34:44.068Z,0
2019-01-30T02:35:54.007Z,0
2019-01-30T02:37:03.993Z,0
2019-01-30T02:38:13.935Z,0
2019-01-30T02:39:23.118Z,0
2019-01-30T02:40:32.832Z,0
2019-01-30T02:41:42.764Z,0
2019-01-30T02:42:52.458Z,0
2019-01-30T02:44:02.419Z,0
2019-01-30T02:45:11.866Z,0
2019-01-30T02:46:21.823Z,0
2019-01-30T02:47:31.518Z,0
2019-01-30T02:48:41.199Z,0
2019-01-30T02:49:50.880Z,0
2019-01-30T02:51:00.831Z,0
2019-01-30T02:52:10.771Z,0
2019-01-30T02:53:20.459Z,0
2019-01-30T02:54:30.192Z,0
2019-01-30T02:55:40.140Z,0
2019-01-30T02:56:50.080Z,0
2019-01-30T02:57:59.782Z,0
2019-01-30T02:59:09.475Z,0
2019-01-30T03:00:19.406Z,0
2019-01-30T03:01:29.341Z,0
2019-01-30T03:02:39.281Z,0
2019-01-30T03:03:49.226Z,0
2019-01-30T03:04:59.313Z,0
2019-01-30T03:06:09.250Z,0
2019-01-30T03:07:19.043Z,0
2019-01-30T03:08:28.475Z,0
2019-01-30T03:09:38.403Z,0
2019-01-30T03:10:48.330Z,0
2019-01-30T03:11:58.275Z,0
2019-01-30T03:13:07.703Z,0
2019-01-30T03:14:17.397Z,0
2019-01-30T03:15:27.113Z,0
2019-01-30T03:16:37.043Z,0
2019-01-30T03:17:46.978Z,0
2019-01-30T03:18:56.910Z,0
2019-01-30T03:20:06.722Z,0
2019-01-30T03:21:16.178Z,0
2019-01-30T03:22:26.121Z,0
2019-01-30T03:23:36.046Z,0
2019-01-30T03:24:45.486Z,0
2019-01-30T03:25:54.927Z,0
2019-01-30T03:27:04.859Z,0
2019-01-30T03:28:14.794Z,0
2019-01-30T03:29:24.748Z,0
2019-01-30T03:30:34.483Z,0
2019-01-30T03:31:44.204Z,0
2019-01-30T03:32:54.230Z,0
2019-01-30T03:34:04.213Z,0
2019-01-30T03:35:14.174Z,0
2019-01-30T03:36:23.863Z,0
2019-01-30T03:37:33.794Z,0
2019-01-30T03:38:43.739Z,0
2019-01-30T03:39:53.673Z,0
2019-01-30T03:41:03.361Z,0
2019-01-30T03:42:13.058Z,0
2019-01-30T03:43:23.009Z,0
2019-01-30T03:44:32.930Z,0
2019-01-30T03:45:42.870Z,0
2019-01-30T03:46:52.782Z,0
2019-01-30T03:48:02.221Z,0
2019-01-30T03:49:12.166Z,0
2019-01-30T03:50:22.108Z,0
2019-01-30T03:51:31.804Z,0
2019-01-30T03:52:41.490Z,0
2019-01-30T03:53:51.439Z,0
2019-01-30T03:55:01.142Z,0
2019-01-30T03:56:11.184Z,0
2019-01-30T03:57:21.110Z,0
2019-01-30T03:58:30.589Z,0
2019-01-30T03:59:40.279Z,0
2019-01-30T04:00:49.977Z,0
2019-01-30T04:01:59.420Z,0
2019-01-30T04:03:09.366Z,0
2019-01-30T04:04:19.062Z,0
2019-01-30T04:05:29.011Z,0
2019-01-30T04:06:38.695Z,0
2019-01-30T04:07:48.130Z,0
2019-01-30T04:08:57.329Z,0
2019-01-30T04:10:07.005Z,0
2019-01-30T04:11:16.703Z,0
2019-01-30T04:12:26.397Z,0
2019-01-30T04:13:36.340Z,0
2019-01-30T04:14:46.043Z,0
2019-01-30T04:15:55.979Z,0
2019-01-30T04:17:05.657Z,0
2019-01-30T04:18:15.356Z,0
2019-01-30T04:19:25.125Z,0
2019-01-30T04:20:34.813Z,0
2019-01-30T04:21:44.739Z,0
2019-01-30T04:22:54.444Z,0
2019-01-30T04:24:04.117Z,0
2019-01-30T04:25:13.551Z,0
2019-01-30T04:26:23.477Z,0
2019-01-30T04:27:33.414Z,0
2019-01-30T04:28:42.838Z,0
2019-01-30T04:29:52.530Z,0
2019-01-30T04:31:02.525Z,0
2019-01-30T04:32:12.228Z,0
2019-01-30T04:33:22.166Z,0
2019-01-30T04:34:31.899Z,0
2019-01-30T04:35:41.599Z,0
2019-01-30T04:36:51.295Z,0
2019-01-30T04:38:01.247Z,0
2019-01-30T04:39:11.184Z,0
2019-01-30T04:40:20.879Z,0
2019-01-30T04:41:30.821Z,0
2019-01-30T04:42:40.795Z,0
2019-01-30T04:43:50.734Z,0
2019-01-30T04:45:00.795Z,0
2019-01-30T04:46:10.750Z,0
2019-01-30T04:47:20.443Z,0
2019-01-30T04:48:30.373Z,0
2019-01-30T04:49:40.312Z,0
2019-01-30T04:50:50.242Z,0
2019-01-30T04:51:59.997Z,0
2019-01-30T04:53:09.933Z,0
2019-01-30T04:54:19.620Z,0
2019-01-30T04:55:29.057Z,0
2019-01-30T04:56:38.770Z,0
2019-01-30T04:57:48.731Z,0
2019-01-30T04:58:58.416Z,0
2019-01-30T05:00:08.360Z,0
2019-01-30T05:01:18.028Z,0
2019-01-30T05:02:27.460Z,0
2019-01-30T05:03:37.158Z,0
2019-01-30T05:04:46.844Z,0
2019-01-30T05:05:56.781Z,0
2019-01-30T05:07:06.482Z,0
2019-01-30T05:08:16.179Z,0
2019-01-30T05:09:26.125Z,0
2019-01-30T05:10:36.069Z,0
2019-01-30T05:11:45.788Z,0
2019-01-30T05:12:55.725Z,0
2019-01-30T05:14:06.328Z,0
2019-01-30T05:15:16.359Z,0
2019-01-30T05:16:26.300Z,0
2019-01-30T05:17:36.234Z,0
2019-01-30T05:18:46.162Z,0
2019-01-30T05:19:56.114Z,0
2019-01-30T05:21:06.061Z,0
2019-01-30T05:22:15.745Z,0
2019-01-30T05:23:25.696Z,0
2019-01-30T05:24:35.378Z,0
2019-01-30T05:25:45.355Z,0
2019-01-30T05:26:55.280Z,0
2019-01-30T05:28:05.431Z,0
2019-01-30T05:29:15.128Z,0
2019-01-30T05:30:24.827Z,0
2019-01-30T05:31:34.788Z,0
2019-01-30T05:32:44.226Z,0
2019-01-30T05:33:53.650Z,0
2019-01-30T05:35:03.646Z,0
2019-01-30T05:36:13.321Z,0
2019-01-30T05:37:23.258Z,0
2019-01-30T05:38:33.213Z,0
2019-01-30T05:39:43.149Z,0
2019-01-30T05:40:52.842Z,0
2019-01-30T05:42:02.527Z,0
2019-01-30T05:43:12.212Z,0
2019-01-30T05:44:21.912Z,0
2019-01-30T05:45:31.850Z,0
2019-01-30T05:46:41.552Z,0
2019-01-30T05:47:51.251Z,0
2019-01-30T05:49:01.234Z,0
2019-01-30T05:50:11.165Z,0
2019-01-30T05:51:21.108Z,0
2019-01-30T05:52:30.796Z,0
2019-01-30T05:53:40.717Z,0
2019-01-30T05:54:50.147Z,0
2019-01-30T05:55:59.842Z,0
2019-01-30T05:57:09.782Z,0
2019-01-30T05:58:19.216Z,0
2019-01-30T05:59:28.906Z,0
2019-01-30T06:00:38.841Z,0
2019-01-30T06:01:48.517Z,0
2019-01-30T06:02:58.465Z,0
2019-01-30T06:04:08.146Z,0
2019-01-30T06:05:18.197Z,0
2019-01-30T06:06:27.632Z,0
2019-01-30T06:07:37.564Z,0
2019-01-30T06:08:47.353Z,0
2019-01-30T06:09:57.302Z,0
2019-01-30T06:11:07.017Z,0
2019-01-30T06:12:19.982Z,0
2019-01-30T06:13:29.929Z,4
2019-01-30T06:14:39.870Z,4
2019-01-30T06:15:49.830Z,0
2019-01-30T06:16:59.560Z,4
2019-01-30T06:18:09.515Z,4
2019-01-30T06:19:19.468Z,4
2019-01-30T06:20:29.151Z,4
2019-01-30T06:21:39.101Z,8
2019-01-30T06:22:48.774Z,8
2019-01-30T06:23:58.485Z,12
2019-01-30T06:25:07.959Z,12
2019-01-30T06:26:17.946Z,16
2019-01-30T06:27:27.900Z,16
2019-01-30T06:28:37.854Z,20
2019-01-30T06:29:47.563Z,24
2019-01-30T06:30:57.306Z,32
2019-01-30T06:32:06.994Z,36
2019-01-30T06:33:16.233Z,48
2019-01-30T06:34:25.700Z,56
2019-01-30T06:35:35.683Z,68
2019-01-30T06:36:45.396Z,80
2019-01-30T06:37:55.340Z,96
2019-01-30T06:39:04.818Z,112
2019-01-30T06:40:14.508Z,136
2019-01-30T06:41:24.455Z,160
2019-01-30T06:42:34.156Z,184
2019-01-30T06:43:44.080Z,212
2019-01-30T06:44:54.066Z,232
2019-01-30T06:46:03.503Z,256
2019-01-30T06:47:13.187Z,284
2019-01-30T06:48:23.113Z,312
2019-01-30T06:49:33.082Z,344
2019-01-30T06:50:43.007Z,376
2019-01-30T06:51:52.956Z,412
2019-01-30T06:53:02.946Z,448
2019-01-30T06:54:12.887Z,492
2019-01-30T06:55:22.831Z,532
2019-01-30T06:56:32.770Z,580
2019-01-30T06:57:42.721Z,628
2019-01-30T06:58:52.409Z,680
2019-01-30T07:00:02.377Z,732
2019-01-30T07:01:12.323Z,788
2019-01-30T07:02:31.674Z,848
2019-01-30T07:03:41.817Z,940
2019-01-30T07:04:51.513Z,996
2019-01-30T07:06:01.227Z,1064
2019-01-30T07:07:11.189Z,1148
2019-01-30T07:08:20.886Z,1240
2019-01-30T07:09:30.603Z,1316
2019-01-30T07:10:40.030Z,1400
2019-01-30T07:11:49.975Z,1488
2019-01-30T07:12:59.691Z,1600
2019-01-30T07:14:09.685Z,1696
2019-01-30T07:15:19.651Z,1764
2019-01-30T07:16:29.332Z,1848
2019-01-30T07:17:38.768Z,1944
2019-01-30T07:18:48.454Z,2060
2019-01-30T07:19:58.401Z,2160
2019-01-30T07:21:08.474Z,2240
2019-01-30T07:22:18.426Z,2340
2019-01-30T07:23:27.920Z,2460
2019-01-30T07:24:37.864Z,2560
2019-01-30T07:25:47.812Z,2644
2019-01-30T07:26:57.815Z,2720
2019-01-30T07:28:07.795Z,2804
2019-01-30T07:29:16.988Z,2900
2019-01-30T07:30:26.717Z,2976
2019-01-30T07:31:36.674Z,3048
2019-01-30T07:32:49.539Z,3156
2019-01-30T07:33:59.216Z,3332
2019-01-30T07:35:09.186Z,3452
2019-01-30T07:36:18.635Z,3560
2019-01-30T07:37:28.578Z,3712
2019-01-30T07:38:38.048Z,3896
2019-01-30T07:39:48.004Z,4024
2019-01-30T07:40:57.952Z,4176
2019-01-30T07:42:07.649Z,4268
2019-01-30T07:43:17.944Z,4364
2019-01-30T07:44:30.597Z,4508
2019-01-30T07:45:40.570Z,4656
2019-01-30T07:46:50.305Z,4760
2019-01-30T07:48:00.257Z,4856
2019-01-30T07:49:10.291Z,5012
2019-01-30T07:50:20.244Z,5172
2019-01-30T07:51:29.687Z,5276
2019-01-30T07:52:40.019Z,5396
2019-01-30T07:53:49.994Z,5680
2019-01-30T07:55:02.599Z,5744
2019-01-30T07:56:12.557Z,5836
2019-01-30T07:57:22.547Z,5912
2019-01-30T07:58:32.520Z,6020
2019-01-30T07:59:42.482Z,6192
2019-01-30T08:00:52.433Z,6316
2019-01-30T08:02:02.379Z,6616
2019-01-30T08:03:12.327Z,6716
2019-01-30T08:04:22.395Z,7200
2019-01-30T08:05:32.348Z,7844
2019-01-30T08:06:42.305Z,8264
2019-01-30T08:07:51.999Z,8520
2019-01-30T08:09:01.983Z,8556
2019-01-30T08:10:11.950Z,8492
2019-01-30T08:11:21.939Z,8580
2019-01-30T08:12:31.927Z,8756
2019-01-30T08:13:41.630Z,8928
2019-01-30T08:14:51.577Z,9076
2019-01-30T08:16:01.548Z,9164
2019-01-30T08:17:11.495Z,9344
2019-01-30T08:18:21.459Z,9612
2019-01-30T08:19:31.399Z,9864
2019-01-30T08:20:41.364Z,10100
2019-01-30T08:21:51.074Z,10204
2019-01-30T08:23:01.952Z,10380
2019-01-30T08:24:12.537Z,10556
2019-01-30T08:25:23.118Z,10660
2019-01-30T08:26:33.788Z,10984
2019-01-30T08:27:44.184Z,11272
2019-01-30T08:28:55.025Z,11432
2019-01-30T08:30:05.779Z,11468
2019-01-30T08:31:16.609Z,11252
2019-01-30T08:32:29.400Z,11484
2019-01-30T08:33:39.339Z,11696
2019-01-30T08:34:49.328Z,12040
2019-01-30T08:35:59.039Z,12176
2019-01-30T08:37:08.992Z,11956
2019-01-30T08:38:18.933Z,12048
2019-01-30T08:39:28.881Z,12568
2019-01-30T08:40:38.570Z,12828
2019-01-30T08:41:48.527Z,13148
2019-01-30T08:42:59.511Z,13584
2019-01-30T08:44:09.220Z,13592
2019-01-30T08:45:19.177Z,13832
2019-01-30T08:46:29.127Z,14220
2019-01-30T08:47:39.105Z,14520
2019-01-30T08:48:48.859Z,14776
2019-01-30T08:49:58.799Z,14596
2019-01-30T08:51:08.625Z,14232
2019-01-30T08:52:18.576Z,13844
2019-01-30T08:53:28.285Z,13736
2019-01-30T08:54:38.237Z,13636
2019-01-30T08:55:47.946Z,13596
2019-01-30T08:57:00.354Z,13700
2019-01-30T08:58:10.411Z,13728
2019-01-30T08:59:20.393Z,13984
2019-01-30T09:00:30.449Z,14320
2019-01-30T09:01:40.454Z,14952
2019-01-30T09:02:49.982Z,15432
2019-01-30T09:03:59.983Z,15684
2019-01-30T09:05:09.979Z,16768
2019-01-30T09:06:19.465Z,17792
2019-01-30T09:07:29.192Z,18208
2019-01-30T09:08:39.277Z,18848
2019-01-30T09:09:49.328Z,19072
2019-01-30T09:10:58.830Z,19680
2019-01-30T09:12:08.533Z,20864
2019-01-30T09:13:18.259Z,20320
2019-01-30T09:14:28.203Z,20032
2019-01-30T09:15:37.927Z,20736
2019-01-30T09:16:47.882Z,21728
2019-01-30T09:17:57.594Z,30400
2019-01-30T09:19:07.664Z,30112
2019-01-30T09:20:17.376Z,30304
2019-01-30T09:21:27.307Z,31040
2019-01-30T09:22:37.279Z,29472
2019-01-30T09:23:47.242Z,28512
2019-01-30T09:24:57.024Z,30784
2019-01-30T09:26:06.735Z,32480
2019-01-30T09:27:16.734Z,34112
2019-01-30T09:28:26.743Z,35456
2019-01-30T09:29:36.695Z,35840
2019-01-30T09:30:46.703Z,37664
2019-01-30T09:31:56.717Z,38784
2019-01-30T09:33:06.821Z,39168
2019-01-30T09:34:16.864Z,39264
2019-01-30T09:35:26.861Z,37504
2019-01-30T09:36:36.834Z,37248
2019-01-30T09:37:46.881Z,37568
2019-01-30T09:38:56.754Z,37056
2019-01-30T09:40:06.817Z,36736
2019-01-30T09:41:16.588Z,36832
2019-01-30T09:42:26.095Z,38400
2019-01-30T09:43:36.179Z,38624
2019-01-30T09:44:45.889Z,38304
2019-01-30T09:45:55.903Z,39424
2019-01-30T09:47:05.752Z,41216
2019-01-30T09:48:15.806Z,43328
2019-01-30T09:49:25.798Z,43712
2019-01-30T09:50:36.793Z,42720
2019-01-30T09:51:46.496Z,40000
2019-01-30T09:52:56.362Z,41824
2019-01-30T09:54:06.233Z,45344
2019-01-30T09:55:15.997Z,43776
2019-01-30T09:56:25.960Z,42656
2019-01-30T09:57:35.663Z,45664
2019-01-30T09:58:45.436Z,47200
2019-01-30T09:59:55.392Z,46656
2019-01-30T10:01:05.119Z,46880
2019-01-30T10:02:14.834Z,48032
2019-01-30T10:03:24.561Z,48512
2019-01-30T10:04:44.080Z,48672
2019-01-30T10:05:53.806Z,48736
2019-01-30T10:07:03.798Z,46656
2019-01-30T10:08:13.815Z,48416
2019-01-30T10:09:23.562Z,48128
2019-01-30T10:10:33.776Z,46016
2019-01-30T10:11:43.515Z,45888
2019-01-30T10:12:53.488Z,47680
2019-01-30T10:14:03.476Z,48960
2019-01-30T10:15:13.516Z,50272
2019-01-30T10:16:23.485Z,50464
2019-01-30T10:17:35.935Z,49760
2019-01-30T10:18:45.636Z,48704
2019-01-30T10:19:55.817Z,48320
2019-01-30T10:21:05.598Z,49088
2019-01-30T10:22:15.579Z,47840
2019-01-30T10:23:25.545Z,51552
2019-01-30T10:24:36.315Z,54656
2019-01-30T10:25:46.104Z,53632
2019-01-30T10:26:56.059Z,54144
2019-01-30T10:28:15.834Z,56448
2019-01-30T10:29:26.217Z,58912
2019-01-30T10:30:35.928Z,56736
2019-01-30T10:31:45.861Z,52736
2019-01-30T10:32:55.569Z,60704
2019-01-30T10:34:05.514Z,68800
2019-01-30T10:35:15.270Z,72288
2019-01-30T10:36:25.250Z,71168
2019-01-30T10:37:35.229Z,69216
2019-01-30T10:38:45.313Z,65568
2019-01-30T10:39:55.382Z,68416
2019-01-30T10:41:05.357Z,66080
2019-01-30T10:42:15.066Z,65536
2019-01-30T10:43:24.816Z,64896
2019-01-30T10:44:34.520Z,65792
2019-01-30T10:45:45.588Z,67712
2019-01-30T10:46:55.521Z,67456
2019-01-30T10:48:05.033Z,66464
2019-01-30T10:49:14.989Z,62112
2019-01-30T10:50:24.726Z,60128
2019-01-30T10:51:34.682Z,63424
2019-01-30T10:52:44.683Z,65568
2019-01-30T10:53:55.420Z,60704
2019-01-30T10:55:05.382Z,71040
2019-01-30T10:56:16.568Z,69568
2019-01-30T10:57:26.645Z,69120
2019-01-30T10:58:36.597Z,67712
2019-01-30T10:59:46.549Z,67008
2019-01-30T11:00:56.118Z,65696
2019-01-30T11:02:06.051Z,65728
2019-01-30T11:03:15.999Z,63264
2019-01-30T11:04:25.996Z,61696
2019-01-30T11:05:35.946Z,59968
2019-01-30T11:06:45.902Z,58848
2019-01-30T11:07:55.876Z,63392
2019-01-30T11:09:05.600Z,64064
2019-01-30T11:10:15.568Z,61888
2019-01-30T11:11:25.278Z,61280
2019-01-30T11:12:34.992Z,59040
2019-01-30T11:13:44.948Z,59392
2019-01-30T11:14:54.648Z,60224
2019-01-30T11:16:06.166Z,53280
2019-01-30T11:17:16.150Z,54080
2019-01-30T11:18:26.117Z,51648
2019-01-30T11:19:36.060Z,58112
2019-01-30T11:20:46.030Z,61472
2019-01-30T11:21:55.981Z,63456
2019-01-30T11:23:05.959Z,65120
2019-01-30T11:24:15.908Z,63840
2019-01-30T11:25:25.869Z,65440
2019-01-30T11:26:36.479Z,67008
2019-01-30T11:27:46.580Z,68000
2019-01-30T11:28:56.282Z,66976
2019-01-30T11:30:05.997Z,66208
2019-01-30T11:31:15.949Z,64960
2019-01-30T11:32:25.671Z,58816
2019-01-30T11:33:35.628Z,52416
2019-01-30T11:34:45.572Z,47968
2019-01-30T11:35:55.532Z,61024
2019-01-30T11:37:07.475Z,57920
2019-01-30T11:38:17.446Z,59744
2019-01-30T11:39:27.409Z,61568
2019-01-30T11:40:37.106Z,58784
2019-01-30T11:41:46.811Z,57344
2019-01-30T11:42:56.004Z,62112
2019-01-30T11:44:05.981Z,60544
2019-01-30T11:45:15.949Z,66176
2019-01-30T11:46:25.888Z,66400
2019-01-30T11:47:35.348Z,59168
2019-01-30T11:48:45.318Z,62048
2019-01-30T11:50:04.073Z,59104
2019-01-30T11:51:14.022Z,61216
2019-01-30T11:52:23.954Z,61184
2019-01-30T11:53:33.739Z,63968
2019-01-30T11:54:46.243Z,65824
2019-01-30T11:55:55.962Z,64160
2019-01-30T11:57:05.912Z,62016
2019-01-30T11:58:15.872Z,60544
2019-01-30T11:59:25.828Z,49504
2019-01-30T12:00:35.816Z,58592
2019-01-30T12:01:46.003Z,66688
2019-01-30T12:02:55.753Z,58208
2019-01-30T12:04:05.726Z,61024
2019-01-30T12:05:25.280Z,62432
2019-01-30T12:06:34.994Z,63712
2019-01-30T12:07:44.955Z,61696
2019-01-30T12:08:54.911Z,59936
2019-01-30T12:10:04.623Z,60960
2019-01-30T12:11:14.334Z,61600
2019-01-30T12:12:24.033Z,58464
2019-01-30T12:13:33.982Z,57216
2019-01-30T12:14:43.923Z,57664
2019-01-30T12:15:53.870Z,55648
2019-01-30T12:17:04.069Z,52800
2019-01-30T12:18:13.815Z,50496
2019-01-30T12:19:23.780Z,51104
2019-01-30T12:20:33.966Z,49504
2019-01-30T12:21:43.924Z,50944
2019-01-30T12:22:53.636Z,51584
2019-01-30T12:24:03.590Z,49536
2019-01-30T12:25:13.608Z,49920
2019-01-30T12:26:23.570Z,45280
2019-01-30T12:27:33.062Z,43808
2019-01-30T12:28:43.006Z,46976
2019-01-30T12:29:52.702Z,48256
2019-01-30T12:31:02.671Z,44448
2019-01-30T12:32:12.119Z,44480
2019-01-30T12:33:21.814Z,44928
2019-01-30T12:34:35.447Z,42752
2019-01-30T12:35:44.654Z,41376
2019-01-30T12:36:54.619Z,41568
2019-01-30T12:38:04.578Z,40512
2019-01-30T12:39:14.518Z,37728
2019-01-30T12:40:24.230Z,40416
2019-01-30T12:41:35.777Z,41664
2019-01-30T12:42:45.807Z,38336
2019-01-30T12:43:55.775Z,39456
2019-01-30T12:45:05.485Z,39264
2019-01-30T12:46:15.446Z,38368
2019-01-30T12:47:27.388Z,39424
2019-01-30T12:48:37.356Z,41824
2019-01-30T12:49:46.814Z,40032
2019-01-30T12:50:56.755Z,38560
2019-01-30T12:52:06.470Z,37312
2019-01-30T12:53:16.155Z,34880
2019-01-30T12:54:26.104Z,33984
2019-01-30T12:55:36.794Z,32800
2019-01-30T12:56:46.509Z,30272
2019-01-30T12:57:56.209Z,28544
2019-01-30T12:59:06.168Z,28256
2019-01-30T13:00:15.875Z,27264
2019-01-30T13:01:25.333Z,26240
2019-01-30T13:02:35.295Z,25504
2019-01-30T13:03:45.244Z,25248
2019-01-30T13:04:54.933Z,23872
2019-01-30T13:06:04.916Z,23328
2019-01-30T13:07:14.625Z,23456
2019-01-30T13:08:24.377Z,22560
2019-01-30T13:09:35.758Z,22240
2019-01-30T13:10:45.701Z,22112
2019-01-30T13:11:55.145Z,22304
2019-01-30T13:13:05.106Z,22400
2019-01-30T13:14:14.842Z,23072
2019-01-30T13:15:24.819Z,23040
2019-01-30T13:16:34.757Z,23424
2019-01-30T13:17:46.640Z,23712
2019-01-30T13:18:56.449Z,23424
2019-01-30T13:20:06.401Z,23360
2019-01-30T13:21:16.356Z,22816
2019-01-30T13:22:26.301Z,23040
2019-01-30T13:23:36.263Z,23040
2019-01-30T13:24:45.965Z,24000
2019-01-30T13:25:55.929Z,23936
2019-01-30T13:27:05.918Z,23904
2019-01-30T13:28:15.625Z,22816
2019-01-30T13:29:25.589Z,21056
2019-01-30T13:30:35.567Z,20928
2019-01-30T13:31:45.534Z,20608
2019-01-30T13:32:55.275Z,20064
2019-01-30T13:34:04.719Z,20544
2019-01-30T13:35:14.690Z,20480
2019-01-30T13:36:24.641Z,19744
2019-01-30T13:37:34.842Z,18784
2019-01-30T13:38:45.079Z,18208
2019-01-30T13:39:54.857Z,17920
2019-01-30T13:41:04.828Z,17664
2019-01-30T13:42:14.929Z,17056
2019-01-30T13:43:24.295Z,16896
2019-01-30T13:44:34.252Z,17248
2019-01-30T13:45:44.215Z,17632
2019-01-30T13:46:54.173Z,17536
2019-01-30T13:48:03.912Z,17088
2019-01-30T13:49:13.685Z,16704
2019-01-30T13:50:23.206Z,16960
2019-01-30T13:51:32.910Z,16672
2019-01-30T13:52:42.925Z,16064
2019-01-30T13:53:52.957Z,15136
2019-01-30T13:55:02.989Z,14540
2019-01-30T13:56:12.719Z,14200
2019-01-30T13:57:22.755Z,14044
2019-01-30T13:58:32.533Z,13740
2019-01-30T13:59:41.635Z,13668
2019-01-30T14:00:51.644Z,13640
2019-01-30T14:02:01.663Z,13320
2019-01-30T14:03:11.790Z,13140
2019-01-30T14:04:21.260Z,13060
2019-01-30T14:05:31.030Z,12856
2019-01-30T14:06:40.807Z,12592
2019-01-30T14:07:50.549Z,12384
2019-01-30T14:09:00.644Z,12376
2019-01-30T14:10:10.649Z,12492
2019-01-30T14:11:20.399Z,12512
2019-01-30T14:12:30.156Z,12392
2019-01-30T14:13:40.379Z,12164
2019-01-30T14:14:49.972Z,11840
2019-01-30T14:16:00.146Z,11592
2019-01-30T14:17:10.165Z,11440
2019-01-30T14:18:19.678Z,11300
2019-01-30T14:19:29.421Z,11252
2019-01-30T14:20:39.110Z,11236
2019-01-30T14:21:49.137Z,11112
2019-01-30T14:22:59.250Z,10944
2019-01-30T14:24:08.992Z,10876
2019-01-30T14:25:18.830Z,10880
2019-01-30T14:26:28.326Z,10780
2019-01-30T14:27:38.304Z,10748
2019-01-30T14:28:48.300Z,10920
2019-01-30T14:30:05.332Z,11500
2019-01-30T14:31:15.415Z,11468
2019-01-30T14:32:25.179Z,10836
2019-01-30T14:33:35.187Z,10208
2019-01-30T14:34:45.253Z,9988
2019-01-30T14:35:54.998Z,10024
2019-01-30T14:37:05.437Z,10076
2019-01-30T14:38:15.432Z,9980
2019-01-30T14:39:25.168Z,10020
2019-01-30T14:40:35.140Z,10068
2019-01-30T14:41:45.188Z,9868
2019-01-30T14:42:55.360Z,9540
2019-01-30T14:44:05.477Z,9252
2019-01-30T14:45:15.458Z,9744
2019-01-30T14:46:25.473Z,10996
2019-01-30T14:47:35.594Z,10996
2019-01-30T14:48:45.634Z,10240
2019-01-30T14:49:55.680Z,9692
2019-01-30T14:51:05.466Z,9040
2019-01-30T14:52:15.563Z,8668
2019-01-30T14:53:26.705Z,8656
2019-01-30T14:54:36.657Z,8936
2019-01-30T14:55:46.675Z,9056
2019-01-30T14:56:56.395Z,8888
2019-01-30T14:58:06.454Z,8248
2019-01-30T14:59:16.311Z,7512
2019-01-30T15:00:26.308Z,6876
2019-01-30T15:01:36.279Z,6356
2019-01-30T15:02:46.391Z,5968
2019-01-30T15:03:56.407Z,5644
2019-01-30T15:05:06.457Z,5380
2019-01-30T15:06:16.438Z,5140
2019-01-30T15:07:36.195Z,4880
2019-01-30T15:08:46.587Z,4644
2019-01-30T15:09:56.610Z,4416
2019-01-30T15:11:06.483Z,4192
2019-01-30T15:12:16.515Z,3984
2019-01-30T15:13:26.504Z,3784
2019-01-30T15:14:36.291Z,3592
2019-01-30T15:15:49.031Z,3400
2019-01-30T15:16:59.136Z,3220
2019-01-30T15:18:09.138Z,3056
2019-01-30T15:19:19.201Z,2888
2019-01-30T15:20:29.247Z,2724
2019-01-30T15:21:39.287Z,2572
2019-01-30T15:22:49.023Z,2412
2019-01-30T15:23:58.731Z,2268
2019-01-30T15:25:08.672Z,2128
2019-01-30T15:26:18.616Z,2000
2019-01-30T15:27:29.775Z,1872
2019-01-30T15:28:39.721Z,1752
2019-01-30T15:29:49.672Z,1636
2019-01-30T15:30:59.372Z,1524
2019-01-30T15:32:09.071Z,1408
2019-01-30T15:33:18.792Z,1304
2019-01-30T15:34:28.761Z,1204
2019-01-30T15:35:40.838Z,1108
2019-01-30T15:36:50.784Z,1016
2019-01-30T15:38:00.479Z,932
2019-01-30T15:39:10.424Z,856
2019-01-30T15:40:20.389Z,784
2019-01-30T15:41:30.337Z,720
2019-01-30T15:42:51.525Z,648
2019-01-30T15:44:00.960Z,592
2019-01-30T15:45:14.779Z,544
2019-01-30T15:46:24.478Z,496
2019-01-30T15:47:34.435Z,456
2019-01-30T15:48:44.634Z,412
2019-01-30T15:49:54.347Z,376
2019-01-30T15:51:04.285Z,344
2019-01-30T15:52:13.978Z,312
2019-01-30T15:53:23.687Z,280
2019-01-30T15:54:33.133Z,252
2019-01-30T15:55:43.101Z,224
2019-01-30T15:56:53.054Z,196
2019-01-30T15:58:02.747Z,172
2019-01-30T15:59:12.709Z,148
2019-01-30T16:00:22.753Z,132